Hiko, Nevada
Current Conditions -  °F | °C
As of 11:58 AM on Wednesday 28 Jan 2015 (Local Time) from KINS Reporting Station
Clear Clear  
Wind Chill: 57°   Ceiling: Unl
Heat Index: 57°   Visibility: 10mi
Dew Point: 42°   Wind: 5mph
Humidity: 56%   Direction: 260°W
Pressure: 30.23"   Gusts: NA
Location:  37.6°N, 115.23°W
Report Text: KINS 281958Z AUTO 26004KT 10SM CLR 14/06 A3023 RMK AO2 SLP222 T01410055
Loading
Personal Weather Stations






























Interactive Weather Map New forecast layout! Learn more

10-Day Weather Forecast

Advertisements
Track Severe Weather on mobile